createdAt,value
2023-05-04T16:59:41.212Z,12.53
2023-05-04T17:04:45.481Z,11.84
2023-05-04T17:10:30.320Z,12.03
2023-05-04T17:15:34.120Z,11.84
2023-05-04T17:20:37.879Z,11.68
2023-05-04T17:25:42.066Z,11.48
2023-05-04T17:30:46.379Z,11.32
2023-05-04T17:35:50.395Z,11.08
2023-05-04T17:40:54.331Z,10.79
2023-05-04T17:46:00.210Z,10.50
2023-05-04T17:51:08.052Z,10.29
2023-05-04T17:56:12.138Z,10.10
2023-05-04T18:01:16.778Z,9.91
2023-05-04T18:06:20.924Z,9.75
2023-05-04T18:11:25.326Z,9.49
2023-05-04T18:16:28.983Z,9.33
2023-05-04T18:21:37.259Z,9.11
2023-05-04T18:26:41.070Z,8.96
2023-05-04T18:31:45.587Z,8.83
2023-05-04T18:36:49.426Z,8.62
2023-05-04T18:41:53.315Z,8.53
2023-05-04T18:46:57.529Z,8.44
2023-05-04T18:52:02.807Z,8.31
2023-05-04T18:57:07.128Z,8.32
2023-05-04T19:02:10.252Z,8.18
2023-05-04T19:07:15.946Z,8.37
2023-05-04T19:12:20.140Z,8.32
2023-05-04T19:17:23.976Z,8.36
2023-05-04T19:22:28.212Z,8.49
2023-05-04T19:27:35.429Z,8.45
2023-05-04T19:32:39.511Z,8.41
2023-05-04T19:37:43.467Z,8.32
2023-05-04T19:42:47.961Z,8.22
2023-05-04T19:47:53.111Z,8.12
2023-05-04T19:52:57.237Z,8.09
2023-05-04T19:58:01.664Z,8.03
2023-05-04T20:03:06.083Z,8.05
2023-05-04T20:08:09.718Z,8.10
2023-05-04T20:13:14.146Z,7.89
2023-05-04T20:18:18.524Z,8.07
2023-05-04T20:23:23.501Z,7.91
2023-05-04T20:28:26.692Z,7.84
2023-05-04T20:33:30.626Z,7.86
2023-05-04T20:38:35.170Z,7.77
2023-05-04T20:43:39.034Z,7.60
2023-05-04T20:48:43.197Z,7.62
2023-05-04T20:53:47.815Z,7.56
2023-05-04T20:58:51.592Z,7.42
2023-05-04T21:03:56.830Z,7.32
2023-05-04T21:09:02.277Z,7.31
2023-05-04T21:14:06.716Z,7.33
2023-05-04T21:19:11.248Z,7.27
2023-05-04T21:24:16.442Z,7.19
2023-05-04T21:29:20.454Z,7.04
2023-05-04T21:34:25.208Z,7.31
2023-05-04T21:39:29.267Z,7.22
2023-05-04T21:44:33.439Z,7.11
2023-05-04T21:49:37.527Z,7.00
2023-05-04T21:54:41.488Z,6.98
2023-05-04T21:59:49.469Z,6.94
2023-05-04T22:04:53.934Z,6.86
2023-05-04T22:09:57.435Z,6.82
2023-05-04T22:15:01.144Z,6.79
2023-05-04T22:20:05.889Z,6.77
2023-05-04T22:25:10.505Z,6.67
2023-05-04T22:30:14.563Z,6.53
2023-05-04T22:35:18.962Z,6.50
2023-05-04T22:40:22.946Z,6.46
2023-05-04T22:45:26.514Z,6.49
2023-05-04T22:50:30.770Z,6.39
2023-05-04T22:55:34.109Z,6.27
2023-05-04T23:00:38.107Z,6.23
2023-05-04T23:05:41.307Z,6.09
2023-05-04T23:10:46.077Z,6.31
2023-05-04T23:15:49.233Z,6.27
2023-05-04T23:20:53.476Z,6.34
2023-05-04T23:25:57.329Z,6.34
2023-05-04T23:31:00.475Z,6.22
2023-05-04T23:36:04.129Z,6.21
2023-05-04T23:41:07.928Z,6.12
2023-05-04T23:46:11.657Z,6.10
2023-05-04T23:51:14.664Z,6.02
2023-05-04T23:56:18.225Z,5.91
